sensor_id;sensor_type;location;lat;lon;timestamp;pressure;altitude;pressure_sealevel;temperature;humidity
78229;BME280;74448;49.082;9.152;2024-02-28T00:02:02;99351.47;;;11.71;62.96
78229;BME280;74448;49.082;9.152;2024-02-28T00:04:28;99363.97;;;11.69;62.54
78229;BME280;74448;49.082;9.152;2024-02-28T00:06:55;99357.97;;;11.67;62.90
78229;BME280;74448;49.082;9.152;2024-02-28T00:09:22;99365.09;;;11.66;62.72
78229;BME280;74448;49.082;9.152;2024-02-28T00:11:48;99360.88;;;11.64;62.81
78229;BME280;74448;49.082;9.152;2024-02-28T00:14:15;99356.66;;;11.61;62.66
78229;BME280;74448;49.082;9.152;2024-02-28T00:16:45;99367.38;;;11.60;63.08
78229;BME280;74448;49.082;9.152;2024-02-28T00:19:12;99360.41;;;11.59;62.97
78229;BME280;74448;49.082;9.152;2024-02-28T00:21:40;99360.50;;;11.57;62.62
78229;BME280;74448;49.082;9.152;2024-02-28T00:24:07;99372.19;;;11.55;62.77
78229;BME280;74448;49.082;9.152;2024-02-28T00:26:34;99369.66;;;11.53;62.71
78229;BME280;74448;49.082;9.152;2024-02-28T00:29:01;99371.47;;;11.53;63.12
78229;BME280;74448;49.082;9.152;2024-02-28T00:31:28;99378.69;;;11.51;62.72
78229;BME280;74448;49.082;9.152;2024-02-28T00:33:55;99377.03;;;11.50;63.25
78229;BME280;74448;49.082;9.152;2024-02-28T00:36:21;99382.41;;;11.48;62.71
78229;BME280;74448;49.082;9.152;2024-02-28T00:38:48;99375.59;;;11.45;62.78
78229;BME280;74448;49.082;9.152;2024-02-28T00:41:14;99380.97;;;11.44;63.19
78229;BME280;74448;49.082;9.152;2024-02-28T00:43:41;99386.41;;;11.42;62.84
78229;BME280;74448;49.082;9.152;2024-02-28T00:46:08;99375.59;;;11.34;63.14
78229;BME280;74448;49.082;9.152;2024-02-28T00:48:40;99371.72;;;11.38;62.96
78229;BME280;74448;49.082;9.152;2024-02-28T00:51:07;99382.31;;;11.38;62.64
78229;BME280;74448;49.082;9.152;2024-02-28T00:53:35;99381.09;;;11.31;62.59
78229;BME280;74448;49.082;9.152;2024-02-28T00:56:02;99387.00;;;11.35;62.71
78229;BME280;74448;49.082;9.152;2024-02-28T00:58:29;99391.47;;;11.34;63.07
78229;BME280;74448;49.082;9.152;2024-02-28T01:00:56;99396.00;;;11.32;62.90
78229;BME280;74448;49.082;9.152;2024-02-28T01:03:24;99386.75;;;11.27;62.61
78229;BME280;74448;49.082;9.152;2024-02-28T01:05:50;99391.00;;;11.29;63.22
78229;BME280;74448;49.082;9.152;2024-02-28T01:08:18;99389.28;;;11.28;62.88
78229;BME280;74448;49.082;9.152;2024-02-28T01:10:46;99400.97;;;11.26;62.74
78229;BME280;74448;49.082;9.152;2024-02-28T01:13:13;99392.19;;;11.25;63.15
78229;BME280;74448;49.082;9.152;2024-02-28T01:15:40;99395.78;;;11.24;62.84
78229;BME280;74448;49.082;9.152;2024-02-28T01:18:07;99398.56;;;11.22;62.91
78229;BME280;74448;49.082;9.152;2024-02-28T01:20:34;99399.63;;;11.20;63.09
78229;BME280;74448;49.082;9.152;2024-02-28T01:23:00;99403.22;;;11.19;63.29
78229;BME280;74448;49.082;9.152;2024-02-28T01:25:27;99407.81;;;11.17;62.94
78229;BME280;74448;49.082;9.152;2024-02-28T01:27:56;99416.69;;;11.16;63.27
78229;BME280;74448;49.082;9.152;2024-02-28T01:30:23;99400.94;;;11.14;62.85
78229;BME280;74448;49.082;9.152;2024-02-28T01:32:49;99396.63;;;11.13;63.09
78229;BME280;74448;49.082;9.152;2024-02-28T01:35:16;99398.53;;;11.11;63.16
78229;BME280;74448;49.082;9.152;2024-02-28T01:37:42;99399.50;;;11.10;62.65
78229;BME280;74448;49.082;9.152;2024-02-28T01:40:09;99393.59;;;11.07;62.79
78229;BME280;74448;49.082;9.152;2024-02-28T01:42:36;99382.19;;;11.06;63.22
78229;BME280;74448;49.082;9.152;2024-02-28T01:45:03;99385.81;;;11.05;63.17
78229;BME280;74448;49.082;9.152;2024-02-28T01:47:31;99393.88;;;11.04;63.17
78229;BME280;74448;49.082;9.152;2024-02-28T01:49:57;99389.63;;;11.01;63.20
78229;BME280;74448;49.082;9.152;2024-02-28T01:52:24;99387.22;;;10.98;62.85
78229;BME280;74448;49.082;9.152;2024-02-28T01:54:51;99385.31;;;11.00;62.97
78229;BME280;74448;49.082;9.152;2024-02-28T01:57:17;99379.28;;;10.98;62.78
78229;BME280;74448;49.082;9.152;2024-02-28T01:59:44;99384.59;;;10.98;63.38
78229;BME280;74448;49.082;9.152;2024-02-28T02:02:12;99383.88;;;10.96;63.27
78229;BME280;74448;49.082;9.152;2024-02-28T02:04:38;99381.31;;;10.94;62.97
78229;BME280;74448;49.082;9.152;2024-02-28T02:07:06;99392.88;;;10.93;62.90
78229;BME280;74448;49.082;9.152;2024-02-28T02:09:34;99386.13;;;10.89;63.38
78229;BME280;74448;49.082;9.152;2024-02-28T02:12:02;99396.59;;;10.91;63.32
78229;BME280;74448;49.082;9.152;2024-02-28T02:14:28;99396.72;;;10.89;63.40
78229;BME280;74448;49.082;9.152;2024-02-28T02:16:55;99408.13;;;10.90;63.01
78229;BME280;74448;49.082;9.152;2024-02-28T02:19:21;99403.19;;;10.85;63.43
78229;BME280;74448;49.082;9.152;2024-02-28T02:21:52;99414.75;;;10.84;62.93
78229;BME280;74448;49.082;9.152;2024-02-28T02:24:20;99414.75;;;10.84;63.10
78229;BME280;74448;49.082;9.152;2024-02-28T02:26:47;99425.31;;;10.84;63.42
78229;BME280;74448;49.082;9.152;2024-02-28T02:29:13;99416.16;;;10.77;62.80
78229;BME280;74448;49.082;9.152;2024-02-28T02:31:40;99428.19;;;10.81;62.91
78229;BME280;74448;49.082;9.152;2024-02-28T02:34:07;99445.00;;;10.80;63.34
78229;BME280;74448;49.082;9.152;2024-02-28T02:36:33;99443.34;;;10.79;63.32
78229;BME280;74448;49.082;9.152;2024-02-28T02:39:00;99447.78;;;10.79;63.43
78229;BME280;74448;49.082;9.152;2024-02-28T02:41:27;99453.16;;;10.77;63.16
78229;BME280;74448;49.082;9.152;2024-02-28T02:43:53;99451.50;;;10.76;62.90
78229;BME280;74448;49.082;9.152;2024-02-28T02:46:20;99463.03;;;10.75;63.43
78229;BME280;74448;49.082;9.152;2024-02-28T02:48:46;99458.69;;;10.74;63.16
78229;BME280;74448;49.082;9.152;2024-02-28T02:51:13;99457.97;;;10.72;63.31
78229;BME280;74448;49.082;9.152;2024-02-28T02:53:40;99466.13;;;10.69;63.01
78229;BME280;74448;49.082;9.152;2024-02-28T02:56:06;99467.09;;;10.68;63.01
78229;BME280;74448;49.082;9.152;2024-02-28T02:58:33;99475.13;;;10.66;63.48
78229;BME280;74448;49.082;9.152;2024-02-28T03:01:00;99479.59;;;10.66;63.40
78229;BME280;74448;49.082;9.152;2024-02-28T03:03:26;99483.16;;;10.65;63.50
78229;BME280;74448;49.082;9.152;2024-02-28T03:05:53;99487.59;;;10.64;62.99
78229;BME280;74448;49.082;9.152;2024-02-28T03:08:20;99490.38;;;10.63;63.17
78229;BME280;74448;49.082;9.152;2024-02-28T03:10:46;99493.97;;;10.62;62.90
78229;BME280;74448;49.082;9.152;2024-02-28T03:13:13;99486.06;;;10.62;62.84
78229;BME280;74448;49.082;9.152;2024-02-28T03:15:40;99490.59;;;10.60;63.04
78229;BME280;74448;49.082;9.152;2024-02-28T03:18:06;99492.41;;;10.59;63.02
78229;BME280;74448;49.082;9.152;2024-02-28T03:20:33;99488.16;;;10.57;62.91
78229;BME280;74448;49.082;9.152;2024-02-28T03:23:00;99490.81;;;10.57;63.17
78229;BME280;74448;49.082;9.152;2024-02-28T03:25:27;99489.13;;;10.56;63.24
78229;BME280;74448;49.082;9.152;2024-02-28T03:27:54;99503.31;;;10.55;62.80
78229;BME280;74448;49.082;9.152;2024-02-28T03:30:21;99501.63;;;10.54;62.96
78229;BME280;74448;49.082;9.152;2024-02-28T03:32:48;99502.56;;;10.53;62.77
78229;BME280;74448;49.082;9.152;2024-02-28T03:35:14;99506.16;;;10.52;62.83
78229;BME280;74448;49.082;9.152;2024-02-28T03:37:41;99511.47;;;10.52;63.37
78229;BME280;74448;49.082;9.152;2024-02-28T03:40:08;99503.66;;;10.50;63.11
78229;BME280;74448;49.082;9.152;2024-02-28T03:42:34;99512.50;;;10.49;62.93
78229;BME280;74448;49.082;9.152;2024-02-28T03:45:01;99507.81;;;10.41;63.26
78229;BME280;74448;49.082;9.152;2024-02-28T03:47:28;99516.38;;;10.45;63.10
78229;BME280;74448;49.082;9.152;2024-02-28T03:49:55;99525.13;;;10.45;63.18
78229;BME280;74448;49.082;9.152;2024-02-28T03:52:23;99524.38;;;10.43;62.93
78229;BME280;74448;49.082;9.152;2024-02-28T03:54:50;99532.31;;;10.43;63.24
78229;BME280;74448;49.082;9.152;2024-02-28T03:57:17;99541.19;;;10.42;63.19
78229;BME280;74448;49.082;9.152;2024-02-28T03:59:43;99544.81;;;10.41;62.86
78229;BME280;74448;49.082;9.152;2024-02-28T04:02:10;99540.47;;;10.40;63.11
78229;BME280;74448;49.082;9.152;2024-02-28T04:04:36;99548.38;;;10.40;63.35
78229;BME280;74448;49.082;9.152;2024-02-28T04:07:03;99542.38;;;10.38;62.83
78229;BME280;74448;49.082;9.152;2024-02-28T04:09:30;99548.63;;;10.37;63.05
78229;BME280;74448;49.082;9.152;2024-02-28T04:11:56;99559.19;;;10.37;63.17
78229;BME280;74448;49.082;9.152;2024-02-28T04:14:23;99555.09;;;10.33;63.03
78229;BME280;74448;49.082;9.152;2024-02-28T04:16:49;99565.53;;;10.35;62.83
78229;BME280;74448;49.082;9.152;2024-02-28T04:19:16;99562.06;;;10.34;63.19
78229;BME280;74448;49.082;9.152;2024-02-28T04:21:43;99563.94;;;10.32;63.23
78229;BME280;74448;49.082;9.152;2024-02-28T04:24:09;99569.22;;;10.32;63.03
78229;BME280;74448;49.082;9.152;2024-02-28T04:26:38;99571.16;;;10.30;63.33
78229;BME280;74448;49.082;9.152;2024-02-28T04:29:05;99572.94;;;10.30;63.39
78229;BME280;74448;49.082;9.152;2024-02-28T04:31:34;99566.81;;;10.29;63.15
78229;BME280;74448;49.082;9.152;2024-02-28T04:34:04;99564.28;;;10.28;63.06
78229;BME280;74448;49.082;9.152;2024-02-28T04:36:30;99568.91;;;10.24;63.15
78229;BME280;74448;49.082;9.152;2024-02-28T04:38:57;99577.59;;;10.26;63.21
78229;BME280;74448;49.082;9.152;2024-02-28T04:41:23;99579.41;;;10.26;62.86
78229;BME280;74448;49.082;9.152;2024-02-28T04:43:50;99580.41;;;10.23;63.05
78229;BME280;74448;49.082;9.152;2024-02-28T04:46:16;99582.09;;;10.24;63.24
78229;BME280;74448;49.082;9.152;2024-02-28T04:48:43;99584.88;;;10.22;63.34
78229;BME280;74448;49.082;9.152;2024-02-28T04:51:10;99585.81;;;10.21;63.12
78229;BME280;74448;49.082;9.152;2024-02-28T04:53:36;99588.47;;;10.21;63.06
78229;BME280;74448;49.082;9.152;2024-02-28T04:56:03;99592.06;;;10.20;63.27
78229;BME280;74448;49.082;9.152;2024-02-28T04:58:30;99598.28;;;10.19;62.96
78229;BME280;74448;49.082;9.152;2024-02-28T05:00:56;99597.56;;;10.17;62.90
78229;BME280;74448;49.082;9.152;2024-02-28T05:03:23;99600.22;;;10.17;63.36
78229;BME280;74448;49.082;9.152;2024-02-28T05:05:51;99607.28;;;10.17;62.88
78229;BME280;74448;49.082;9.152;2024-02-28T05:08:20;99605.06;;;10.11;62.83
78229;BME280;74448;49.082;9.152;2024-02-28T05:10:47;99603.16;;;10.13;63.17
78229;BME280;74448;49.082;9.152;2024-02-28T05:13:13;99610.13;;;10.14;63.25
78229;BME280;74448;49.082;9.152;2024-02-28T05:15:40;99603.16;;;10.13;63.12
78229;BME280;74448;49.082;9.152;2024-02-28T05:18:06;99602.34;;;10.12;62.93
78229;BME280;74448;49.082;9.152;2024-02-28T05:20:36;99606.97;;;10.09;62.91
78229;BME280;74448;49.082;9.152;2024-02-28T05:23:03;99605.06;;;10.11;63.10
78229;BME280;74448;49.082;9.152;2024-02-28T05:25:29;99598.31;;;10.07;63.04
78229;BME280;74448;49.082;9.152;2024-02-28T05:27:56;99608.66;;;10.10;63.20
78229;BME280;74448;49.082;9.152;2024-02-28T05:30:23;99604.34;;;10.09;63.26
78229;BME280;74448;49.082;9.152;2024-02-28T05:32:49;99608.88;;;10.07;63.22
78229;BME280;74448;49.082;9.152;2024-02-28T05:35:16;99606.22;;;10.07;63.04
78229;BME280;74448;49.082;9.152;2024-02-28T05:37:44;99616.78;;;10.07;62.92
78229;BME280;74448;49.082;9.152;2024-02-28T05:40:10;99592.41;;;9.90;63.05
78229;BME280;74448;49.082;9.152;2024-02-28T05:42:39;99624.94;;;10.04;63.07
78229;BME280;74448;49.082;9.152;2024-02-28T05:45:06;99622.50;;;10.01;63.37
78229;BME280;74448;49.082;9.152;2024-02-28T05:47:33;99621.56;;;10.02;63.07
78229;BME280;74448;49.082;9.152;2024-02-28T05:50:00;99622.41;;;10.02;63.06
78229;BME280;74448;49.082;9.152;2024-02-28T05:52:26;99626.97;;;10.00;62.88
78229;BME280;74448;49.082;9.152;2024-02-28T05:54:53;99625.28;;;9.99;63.43
78229;BME280;74448;49.082;9.152;2024-02-28T05:57:20;99624.41;;;9.98;63.40
78229;BME280;74448;49.082;9.152;2024-02-28T05:59:46;99624.50;;;9.97;63.31
78229;BME280;74448;49.082;9.152;2024-02-28T06:02:13;99622.00;;;9.95;63.32
78229;BME280;74448;49.082;9.152;2024-02-28T06:04:40;99617.63;;;9.94;62.86
78229;BME280;74448;49.082;9.152;2024-02-28T06:07:07;99615.97;;;9.93;63.20
78229;BME280;74448;49.082;9.152;2024-02-28T06:09:33;99617.03;;;9.91;63.37
78229;BME280;74448;49.082;9.152;2024-02-28T06:12:00;99616.28;;;9.89;62.95
78229;BME280;74448;49.082;9.152;2024-02-28T06:14:28;99625.78;;;9.91;63.25
78229;BME280;74448;49.082;9.152;2024-02-28T06:16:54;99623.25;;;9.90;63.26
78229;BME280;74448;49.082;9.152;2024-02-28T06:19:21;99632.97;;;9.89;63.14
78229;BME280;74448;49.082;9.152;2024-02-28T06:21:47;99629.59;;;9.87;63.53
78229;BME280;74448;49.082;9.152;2024-02-28T06:24:14;99641.84;;;9.88;63.08
78229;BME280;74448;49.082;9.152;2024-02-28T06:26:41;99640.34;;;9.84;63.32
78229;BME280;74448;49.082;9.152;2024-02-28T06:29:12;99657.81;;;9.87;63.32
78229;BME280;74448;49.082;9.152;2024-02-28T06:31:38;99660.44;;;9.87;63.28
78229;BME280;74448;49.082;9.152;2024-02-28T06:34:05;99664.00;;;9.86;63.04
78229;BME280;74448;49.082;9.152;2024-02-28T06:36:32;99662.31;;;9.85;63.28
78229;BME280;74448;49.082;9.152;2024-02-28T06:38:58;99670.25;;;9.85;63.03
78229;BME280;74448;49.082;9.152;2024-02-28T06:41:25;99663.59;;;9.79;63.08
78229;BME280;74448;49.082;9.152;2024-02-28T06:43:52;99657.16;;;9.83;63.11
78229;BME280;74448;49.082;9.152;2024-02-28T06:46:18;99667.06;;;9.80;63.06
78229;BME280;74448;49.082;9.152;2024-02-28T06:48:45;99677.53;;;9.81;63.31
78229;BME280;74448;49.082;9.152;2024-02-28T06:51:11;99675.00;;;9.80;63.06
78229;BME280;74448;49.082;9.152;2024-02-28T06:53:42;99684.78;;;9.78;63.24
78229;BME280;74448;49.082;9.152;2024-02-28T06:56:08;99688.31;;;9.78;63.21
78229;BME280;74448;49.082;9.152;2024-02-28T06:58:35;99694.50;;;9.77;63.09
78229;BME280;74448;49.082;9.152;2024-02-28T07:01:02;99693.66;;;9.77;63.26
78229;BME280;74448;49.082;9.152;2024-02-28T07:03:29;99695.47;;;9.76;63.16
78229;BME280;74448;49.082;9.152;2024-02-28T07:05:56;99699.06;;;9.75;62.89
78229;BME280;74448;49.082;9.152;2024-02-28T07:08:22;99700.09;;;9.72;63.44
78229;BME280;74448;49.082;9.152;2024-02-28T07:10:49;99703.81;;;9.70;63.11
78229;BME280;74448;49.082;9.152;2024-02-28T07:13:20;99704.66;;;9.70;63.03
78229;BME280;74448;49.082;9.152;2024-02-28T07:15:48;99708.13;;;9.71;63.00
78229;BME280;74448;49.082;9.152;2024-02-28T07:18:15;99709.09;;;9.70;63.04
78229;BME280;74448;49.082;9.152;2024-02-28T07:20:42;99705.81;;;9.66;63.28
78229;BME280;74448;49.082;9.152;2024-02-28T07:23:09;99707.38;;;9.69;63.12
78229;BME280;74448;49.082;9.152;2024-02-28T07:25:35;99708.34;;;9.68;63.12
78229;BME280;74448;49.082;9.152;2024-02-28T07:28:09;99715.53;;;9.66;63.31
78229;BME280;74448;49.082;9.152;2024-02-28T07:30:51;99726.94;;;9.66;62.95
78229;BME280;74448;49.082;9.152;2024-02-28T07:33:25;99731.34;;;9.66;63.35
78229;BME280;74448;49.082;9.152;2024-02-28T07:35:52;99729.66;;;9.65;63.13
78229;BME280;74448;49.082;9.152;2024-02-28T07:38:19;99741.03;;;9.65;63.06
78229;BME280;74448;49.082;9.152;2024-02-28T07:40:50;99738.53;;;9.64;63.29
78229;BME280;74448;49.082;9.152;2024-02-28T07:43:16;99736.31;;;9.58;63.34
78229;BME280;74448;49.082;9.152;2024-02-28T07:45:43;99747.59;;;9.60;63.14
78229;BME280;74448;49.082;9.152;2024-02-28T07:48:09;99751.81;;;9.62;63.15
78229;BME280;74448;49.082;9.152;2024-02-28T07:50:36;99757.19;;;9.61;63.07
78229;BME280;74448;49.082;9.152;2024-02-28T07:53:04;99761.63;;;9.60;63.08
78229;BME280;74448;49.082;9.152;2024-02-28T07:55:30;99759.94;;;9.59;63.09
78229;BME280;74448;49.082;9.152;2024-02-28T07:57:57;99772.28;;;9.59;63.27
78229;BME280;74448;49.082;9.152;2024-02-28T08:00:24;99761.72;;;9.59;63.09
78229;BME280;74448;49.082;9.152;2024-02-28T08:02:51;99756.56;;;9.57;63.17
78229;BME280;74448;49.082;9.152;2024-02-28T08:05:18;99768.88;;;9.57;63.07
78229;BME280;74448;49.082;9.152;2024-02-28T08:07:45;99768.03;;;9.56;63.30
78229;BME280;74448;49.082;9.152;2024-02-28T08:10:11;99767.41;;;9.53;63.30
78229;BME280;74448;49.082;9.152;2024-02-28T08:12:38;99786.63;;;9.55;63.18
78229;BME280;74448;49.082;9.152;2024-02-28T08:15:05;99780.59;;;9.53;63.40
78229;BME280;74448;49.082;9.152;2024-02-28T08:17:31;99776.47;;;9.48;63.20
78229;BME280;74448;49.082;9.152;2024-02-28T08:19:58;99793.78;;;9.53;63.40
78229;BME280;74448;49.082;9.152;2024-02-28T08:22:25;99782.50;;;9.51;63.39
78229;BME280;74448;49.082;9.152;2024-02-28T08:24:52;99790.41;;;9.51;63.21
78229;BME280;74448;49.082;9.152;2024-02-28T08:27:18;99791.38;;;9.50;63.63
78229;BME280;74448;49.082;9.152;2024-02-28T08:29:46;99789.66;;;9.48;63.47
78229;BME280;74448;49.082;9.152;2024-02-28T08:32:13;99790.53;;;9.49;63.34
78229;BME280;74448;49.082;9.152;2024-02-28T08:34:43;99792.28;;;9.48;63.24
78229;BME280;74448;49.082;9.152;2024-02-28T08:37:10;99780.06;;;9.47;63.30
78229;BME280;74448;49.082;9.152;2024-02-28T08:39:37;99785.31;;;9.47;63.21
78229;BME280;74448;49.082;9.152;2024-02-28T08:42:04;99788.91;;;9.46;63.40
78229;BME280;74448;49.082;9.152;2024-02-28T08:44:31;99794.31;;;9.45;63.48
78229;BME280;74448;49.082;9.152;2024-02-28T08:46:57;99796.06;;;9.44;63.07
78229;BME280;74448;49.082;9.152;2024-02-28T08:49:24;99796.06;;;9.44;63.35
78229;BME280;74448;49.082;9.152;2024-02-28T08:51:50;99798.72;;;9.44;63.29
78229;BME280;74448;49.082;9.152;2024-02-28T08:54:17;99805.78;;;9.44;63.28
78229;BME280;74448;49.082;9.152;2024-02-28T08:56:44;99806.84;;;9.41;63.01
78229;BME280;74448;49.082;9.152;2024-02-28T08:59:22;99803.38;;;9.41;63.19
78229;BME280;74448;49.082;9.152;2024-02-28T09:01:48;99805.34;;;9.37;63.50
78229;BME280;74448;49.082;9.152;2024-02-28T09:04:15;99802.59;;;9.39;63.34
78229;BME280;74448;49.082;9.152;2024-02-28T09:06:42;99809.56;;;9.40;63.21
78229;BME280;74448;49.082;9.152;2024-02-28T09:09:08;99805.22;;;9.39;63.53
78229;BME280;74448;49.082;9.152;2024-02-28T09:11:35;99806.06;;;9.39;63.36
78229;BME280;74448;49.082;9.152;2024-02-28T09:14:01;99802.72;;;9.37;63.18
78229;BME280;74448;49.082;9.152;2024-02-28T09:16:28;99800.06;;;9.37;63.28
78229;BME280;74448;49.082;9.152;2024-02-28T09:18:55;99799.31;;;9.35;63.19
78229;BME280;74448;49.082;9.152;2024-02-28T09:21:22;99803.75;;;9.35;63.17
78229;BME280;74448;49.082;9.152;2024-02-28T09:23:48;99804.59;;;9.35;63.18
78229;BME280;74448;49.082;9.152;2024-02-28T09:26:15;99791.59;;;9.32;63.12
78229;BME280;74448;49.082;9.152;2024-02-28T09:28:41;99799.31;;;9.35;63.21
78229;BME280;74448;49.082;9.152;2024-02-28T09:31:08;99799.41;;;9.34;63.46
78229;BME280;74448;49.082;9.152;2024-02-28T09:33:36;99802.91;;;9.34;63.39
78229;BME280;74448;49.082;9.152;2024-02-28T09:36:04;99793.28;;;9.33;63.41
78229;BME280;74448;49.082;9.152;2024-02-28T09:38:31;99795.09;;;9.33;63.23
78229;BME280;74448;49.082;9.152;2024-02-28T09:40:59;99795.09;;;9.33;63.40
78229;BME280;74448;49.082;9.152;2024-02-28T09:43:29;99776.75;;;9.17;63.19
78229;BME280;74448;49.082;9.152;2024-02-28T09:45:59;99807.44;;;9.32;63.37
78229;BME280;74448;49.082;9.152;2024-02-28T09:48:27;99805.72;;;9.31;63.14
78229;BME280;74448;49.082;9.152;2024-02-28T09:50:57;99815.34;;;9.32;63.41
78229;BME280;74448;49.082;9.152;2024-02-28T09:53:24;99808.56;;;9.28;63.60
78229;BME280;74448;49.082;9.152;2024-02-28T09:55:51;99821.53;;;9.31;63.37
78229;BME280;74448;49.082;9.152;2024-02-28T09:58:19;99822.50;;;9.30;63.14
78229;BME280;74448;49.082;9.152;2024-02-28T10:00:48;99822.50;;;9.30;63.37
78229;BME280;74448;49.082;9.152;2024-02-28T10:03:17;99827.88;;;9.29;63.19
78229;BME280;74448;49.082;9.152;2024-02-28T10:05:49;99822.69;;;9.27;63.28
78229;BME280;74448;49.082;9.152;2024-02-28T10:08:16;99830.81;;;9.24;63.31
78229;BME280;74448;49.082;9.152;2024-02-28T10:10:49;99835.88;;;9.27;63.25
78229;BME280;74448;49.082;9.152;2024-02-28T10:13:20;99824.41;;;9.28;63.31
78229;BME280;74448;49.082;9.152;2024-02-28T10:15:48;99825.31;;;9.27;63.48
78229;BME280;74448;49.082;9.152;2024-02-28T10:18:15;99820.88;;;9.28;63.38
78229;BME280;74448;49.082;9.152;2024-02-28T10:20:42;99828.91;;;9.26;63.42
78229;BME280;74448;49.082;9.152;2024-02-28T10:23:08;99844.72;;;9.26;63.43
78229;BME280;74448;49.082;9.152;2024-02-28T10:25:46;99841.16;;;9.27;63.33
78229;BME280;74448;49.082;9.152;2024-02-28T10:28:23;99842.94;;;9.27;63.22
78229;BME280;74448;49.082;9.152;2024-02-28T10:30:49;99844.72;;;9.26;63.28
78229;BME280;74448;49.082;9.152;2024-02-28T10:33:16;99844.72;;;9.26;63.19
78229;BME280;74448;49.082;9.152;2024-02-28T10:35:43;99848.31;;;9.25;63.23
78229;BME280;74448;49.082;9.152;2024-02-28T10:38:12;99859.72;;;9.26;63.38
78229;BME280;74448;49.082;9.152;2024-02-28T10:40:40;99854.72;;;9.21;63.34
78229;BME280;74448;49.082;9.152;2024-02-28T10:43:10;99869.44;;;9.25;63.18
78229;BME280;74448;49.082;9.152;2024-02-28T10:45:37;99871.22;;;9.25;63.23
78229;BME280;74448;49.082;9.152;2024-02-28T10:48:25;99873.84;;;9.25;63.26
78229;BME280;74448;49.082;9.152;2024-02-28T10:50:52;99873.00;;;9.24;63.18
78229;BME280;74448;49.082;9.152;2024-02-28T10:53:41;99878.28;;;9.24;63.33
78229;BME280;74448;49.082;9.152;2024-02-28T10:56:10;99878.28;;;9.24;63.40
78229;BME280;74448;49.082;9.152;2024-02-28T10:58:47;99884.47;;;9.23;63.27
78229;BME280;74448;49.082;9.152;2024-02-28T11:01:16;99881.84;;;9.23;63.24
78229;BME280;74448;49.082;9.152;2024-02-28T11:03:44;99881.84;;;9.23;63.09
78229;BME280;74448;49.082;9.152;2024-02-28T11:06:21;99886.38;;;9.21;63.37
78229;BME280;74448;49.082;9.152;2024-02-28T11:08:49;99876.13;;;9.16;63.21
78229;BME280;74448;49.082;9.152;2024-02-28T11:11:20;99892.50;;;9.21;63.29
78229;BME280;74448;49.082;9.152;2024-02-28T11:13:58;99893.34;;;9.22;63.11
78229;BME280;74448;49.082;9.152;2024-02-28T11:16:33;99903.78;;;9.23;63.13
78229;BME280;74448;49.082;9.152;2024-02-28T11:19:01;99902.09;;;9.22;63.25
78229;BME280;74448;49.082;9.152;2024-02-28T11:21:28;99888.91;;;9.22;63.43
78229;BME280;74448;49.082;9.152;2024-02-28T11:23:59;99898.63;;;9.22;63.32
78229;BME280;74448;49.082;9.152;2024-02-28T11:26:27;99881.94;;;9.21;63.11
78229;BME280;74448;49.082;9.152;2024-02-28T11:28:57;99875.06;;;9.19;63.22
78229;BME280;74448;49.082;9.152;2024-02-28T11:31:24;99884.59;;;9.21;63.32
78229;BME280;74448;49.082;9.152;2024-02-28T11:33:50;99881.09;;;9.21;63.26
78229;BME280;74448;49.082;9.152;2024-02-28T11:36:17;99871.41;;;9.21;62.92
78229;BME280;74448;49.082;9.152;2024-02-28T11:38:43;99874.88;;;9.22;63.03
78229;BME280;74448;49.082;9.152;2024-02-28T11:41:10;99874.88;;;9.22;63.11
78229;BME280;74448;49.082;9.152;2024-02-28T11:43:37;99880.34;;;9.19;63.27
78229;BME280;74448;49.082;9.152;2024-02-28T11:46:17;99878.47;;;9.21;63.22
78229;BME280;74448;49.082;9.152;2024-02-28T11:48:45;99861.31;;;9.14;63.11
78229;BME280;74448;49.082;9.152;2024-02-28T11:51:12;99879.41;;;9.20;63.28
78229;BME280;74448;49.082;9.152;2024-02-28T11:53:38;99876.69;;;9.21;63.31
78229;BME280;74448;49.082;9.152;2024-02-28T11:56:05;99876.78;;;9.20;63.04
78229;BME280;74448;49.082;9.152;2024-02-28T11:58:32;99881.09;;;9.21;63.26
78229;BME280;74448;49.082;9.152;2024-02-28T12:00:58;99882.91;;;9.20;63.03
78229;BME280;74448;49.082;9.152;2024-02-28T12:03:25;99895.13;;;9.21;63.33
78229;BME280;74448;49.082;9.152;2024-02-28T12:05:55;99880.25;;;9.20;62.98
78229;BME280;74448;49.082;9.152;2024-02-28T12:08:22;99889.03;;;9.21;62.96
78229;BME280;74448;49.082;9.152;2024-02-28T12:10:51;99875.06;;;9.19;63.10
78229;BME280;74448;49.082;9.152;2024-02-28T12:13:18;99870.94;;;9.15;63.14
78229;BME280;74448;49.082;9.152;2024-02-28T12:15:45;99881.09;;;9.21;62.85
78229;BME280;74448;49.082;9.152;2024-02-28T12:18:15;99870.56;;;9.21;63.26
78229;BME280;74448;49.082;9.152;2024-02-28T12:20:41;99873.19;;;9.21;63.09
78229;BME280;74448;49.082;9.152;2024-02-28T12:23:08;99874.88;;;9.22;63.22
78229;BME280;74448;49.082;9.152;2024-02-28T12:25:35;99874.88;;;9.22;63.13
78229;BME280;74448;49.082;9.152;2024-02-28T12:28:01;99860.38;;;9.15;63.06
78229;BME280;74448;49.082;9.152;2024-02-28T12:30:29;99866.13;;;9.21;63.04
78229;BME280;74448;49.082;9.152;2024-02-28T12:32:55;99872.25;;;9.22;63.11
78229;BME280;74448;49.082;9.152;2024-02-28T12:35:23;99857.38;;;9.21;62.94
78229;BME280;74448;49.082;9.152;2024-02-28T12:37:49;99860.00;;;9.21;63.03
78229;BME280;74448;49.082;9.152;2024-02-28T12:40:16;99847.66;;;9.21;62.74
78229;BME280;74448;49.082;9.152;2024-02-28T12:42:43;99844.19;;;9.21;63.06
78229;BME280;74448;49.082;9.152;2024-02-28T12:45:10;99851.16;;;9.22;63.06
78229;BME280;74448;49.082;9.152;2024-02-28T12:47:37;99843.22;;;9.22;62.85
78229;BME280;74448;49.082;9.152;2024-02-28T12:50:05;99840.78;;;9.19;63.19
78229;BME280;74448;49.082;9.152;2024-02-28T12:52:34;99840.59;;;9.22;63.07
78229;BME280;74448;49.082;9.152;2024-02-28T12:55:01;99837.00;;;9.23;63.25
78229;BME280;74448;49.082;9.152;2024-02-28T12:57:27;99831.72;;;9.23;62.81
78229;BME280;74448;49.082;9.152;2024-02-28T12:59:55;99835.22;;;9.23;62.74
78229;BME280;74448;49.082;9.152;2024-02-28T13:02:22;99817.03;;;9.19;63.07
78229;BME280;74448;49.082;9.152;2024-02-28T13:04:49;99816.75;;;9.23;62.99
78229;BME280;74448;49.082;9.152;2024-02-28T13:07:15;99817.63;;;9.24;62.91